Irving South's Hourly Summary for Saturday, July 7, 2018
Hour Temp
(f)
RH
(%)
Solar Rad.
(MJ/m2)
Rainfall
(in)
Wind
(mph)
7/7/2018 12:00 AM 81 63 0 0 0.95
7/7/2018 1:00 AM 81 63 0 0 1.28
7/7/2018 2:00 AM 80 65 0 0 0.89
7/7/2018 3:00 AM 79 66 0 0 1.06
7/7/2018 4:00 AM 77 69 0 0 1
7/7/2018 5:00 AM 76 72 0 0 1.06
7/7/2018 6:00 AM 76 74 0 0 0.89
7/7/2018 7:00 AM 75 75 0.03 0 1.69
7/7/2018 8:00 AM 76 72 0.17 0 2.45
7/7/2018 9:00 AM 78 66 1.07 0 2.32
7/7/2018 10:00 AM 81 60 1.75 0 3.14
7/7/2018 11:00 AM 84 55 2.41 0 2.24
7/7/2018 12:00 PM 86 50 2.94 0 3.16
7/7/2018 1:00 PM 89 47 3.28 0 3.19
7/7/2018 2:00 PM 90 44 2.19 0 3.4
7/7/2018 3:00 PM 93 37 3.47 0 3.71
7/7/2018 4:00 PM 94 34 2.45 0 4.06
7/7/2018 5:00 PM 94 33 2.54 0 4.42
7/7/2018 6:00 PM 95 31 1.92 0 4
7/7/2018 7:00 PM 94 32 1.17 0 4.03
7/7/2018 8:00 PM 91 39 0.42 0 3.74
7/7/2018 9:00 PM 88 40 0.04 0 2.11
7/7/2018 10:00 PM 88 44 0 0 1.85
7/7/2018 11:00 PM 86 46 0 0 2.16
Data Summary 84 53 25.85 0.00 2.45